sensor_id;sensor_type;location;lat;lon;timestamp;temperature;humidity
39519;DHT22;25200;53.394;10.414;2022-08-03T00:00:39;22.30;57.20
39519;DHT22;25200;53.394;10.414;2022-08-03T00:03:05;22.30;57.20
39519;DHT22;25200;53.394;10.414;2022-08-03T00:05:31;22.30;57.40
39519;DHT22;25200;53.394;10.414;2022-08-03T00:08:01;22.30;57.30
39519;DHT22;25200;53.394;10.414;2022-08-03T00:10:26;22.20;57.70
39519;DHT22;25200;53.394;10.414;2022-08-03T00:12:52;22.20;57.60
39519;DHT22;25200;53.394;10.414;2022-08-03T00:15:18;22.20;57.50
39519;DHT22;25200;53.394;10.414;2022-08-03T00:17:44;22.20;57.70
39519;DHT22;25200;53.394;10.414;2022-08-03T00:20:12;22.20;57.70
39519;DHT22;25200;53.394;10.414;2022-08-03T00:22:41;22.10;57.70
39519;DHT22;25200;53.394;10.414;2022-08-03T00:25:07;22.10;57.80
39519;DHT22;25200;53.394;10.414;2022-08-03T00:27:33;22.10;57.70
39519;DHT22;25200;53.394;10.414;2022-08-03T00:29:58;22.10;57.90
39519;DHT22;25200;53.394;10.414;2022-08-03T00:32:24;22.10;57.90
39519;DHT22;25200;53.394;10.414;2022-08-03T00:34:50;22.10;57.80
39519;DHT22;25200;53.394;10.414;2022-08-03T00:37:16;22.10;57.70
39519;DHT22;25200;53.394;10.414;2022-08-03T00:39:41;22.10;57.80
39519;DHT22;25200;53.394;10.414;2022-08-03T00:42:10;22.10;57.80
39519;DHT22;25200;53.394;10.414;2022-08-03T00:44:40;22.00;58.00
39519;DHT22;25200;53.394;10.414;2022-08-03T00:47:06;22.00;57.90
39519;DHT22;25200;53.394;10.414;2022-08-03T00:49:32;22.00;57.90
39519;DHT22;25200;53.394;10.414;2022-08-03T00:51:59;21.90;57.90
39519;DHT22;25200;53.394;10.414;2022-08-03T00:54:26;21.90;58.00
39519;DHT22;25200;53.394;10.414;2022-08-03T00:56:52;21.80;57.90
39519;DHT22;25200;53.394;10.414;2022-08-03T00:59:18;21.80;58.00
39519;DHT22;25200;53.394;10.414;2022-08-03T01:01:44;21.80;58.00
39519;DHT22;25200;53.394;10.414;2022-08-03T01:04:09;21.80;58.10
39519;DHT22;25200;53.394;10.414;2022-08-03T01:06:42;21.70;58.00
39519;DHT22;25200;53.394;10.414;2022-08-03T01:09:22;21.70;58.20
39519;DHT22;25200;53.394;10.414;2022-08-03T01:12:20;21.60;58.10
39519;DHT22;25200;53.394;10.414;2022-08-03T01:14:57;21.60;58.10
39519;DHT22;25200;53.394;10.414;2022-08-03T01:20:12;21.50;58.30
39519;DHT22;25200;53.394;10.414;2022-08-03T01:30:45;21.40;58.60
39519;DHT22;25200;53.394;10.414;2022-08-03T01:33:18;21.40;58.60
39519;DHT22;25200;53.394;10.414;2022-08-03T01:38:28;21.30;58.70
39519;DHT22;25200;53.394;10.414;2022-08-03T01:40:57;21.20;58.70
39519;DHT22;25200;53.394;10.414;2022-08-03T01:43:28;21.20;58.70
39519;DHT22;25200;53.394;10.414;2022-08-03T01:45:56;21.20;58.80
39519;DHT22;25200;53.394;10.414;2022-08-03T01:48:23;21.20;58.90
39519;DHT22;25200;53.394;10.414;2022-08-03T01:50:50;21.10;58.80
39519;DHT22;25200;53.394;10.414;2022-08-03T01:53:17;21.10;58.90
39519;DHT22;25200;53.394;10.414;2022-08-03T01:55:47;21.10;59.00
39519;DHT22;25200;53.394;10.414;2022-08-03T01:58:15;21.10;59.50
39519;DHT22;25200;53.394;10.414;2022-08-03T02:00:42;21.00;59.00
39519;DHT22;25200;53.394;10.414;2022-08-03T02:03:11;21.00;59.40
39519;DHT22;25200;53.394;10.414;2022-08-03T02:05:43;21.10;59.20
39519;DHT22;25200;53.394;10.414;2022-08-03T02:08:12;21.00;59.30
39519;DHT22;25200;53.394;10.414;2022-08-03T02:10:39;21.00;59.20
39519;DHT22;25200;53.394;10.414;2022-08-03T02:13:07;21.00;59.40
39519;DHT22;25200;53.394;10.414;2022-08-03T02:15:33;20.90;59.30
39519;DHT22;25200;53.394;10.414;2022-08-03T02:18:01;20.90;59.30
39519;DHT22;25200;53.394;10.414;2022-08-03T02:20:29;20.90;59.30
39519;DHT22;25200;53.394;10.414;2022-08-03T02:22:57;20.90;59.40
39519;DHT22;25200;53.394;10.414;2022-08-03T02:25:23;20.80;59.30
39519;DHT22;25200;53.394;10.414;2022-08-03T02:27:57;20.80;59.40
39519;DHT22;25200;53.394;10.414;2022-08-03T02:30:32;20.80;59.50
39519;DHT22;25200;53.394;10.414;2022-08-03T02:33:03;20.70;59.30
39519;DHT22;25200;53.394;10.414;2022-08-03T02:35:30;20.70;59.50
39519;DHT22;25200;53.394;10.414;2022-08-03T02:38:01;20.70;59.60
39519;DHT22;25200;53.394;10.414;2022-08-03T02:40:28;20.70;59.60
39519;DHT22;25200;53.394;10.414;2022-08-03T02:42:59;20.60;59.60
39519;DHT22;25200;53.394;10.414;2022-08-03T02:45:26;20.60;59.70
39519;DHT22;25200;53.394;10.414;2022-08-03T02:47:57;20.60;59.70
39519;DHT22;25200;53.394;10.414;2022-08-03T02:50:25;20.60;59.70
39519;DHT22;25200;53.394;10.414;2022-08-03T02:52:52;20.60;59.80
39519;DHT22;25200;53.394;10.414;2022-08-03T02:55:20;20.60;59.90
39519;DHT22;25200;53.394;10.414;2022-08-03T02:57:47;20.50;59.90
39519;DHT22;25200;53.394;10.414;2022-08-03T03:00:14;20.50;59.90
39519;DHT22;25200;53.394;10.414;2022-08-03T03:02:41;20.50;59.90
39519;DHT22;25200;53.394;10.414;2022-08-03T03:05:07;20.50;59.90
39519;DHT22;25200;53.394;10.414;2022-08-03T03:07:35;20.50;60.00
39519;DHT22;25200;53.394;10.414;2022-08-03T03:10:02;20.40;60.00
39519;DHT22;25200;53.394;10.414;2022-08-03T03:12:30;20.40;60.00
39519;DHT22;25200;53.394;10.414;2022-08-03T03:14:56;20.40;60.20
39519;DHT22;25200;53.394;10.414;2022-08-03T03:17:23;20.40;60.00
39519;DHT22;25200;53.394;10.414;2022-08-03T03:19:52;20.40;60.20
39519;DHT22;25200;53.394;10.414;2022-08-03T03:22:19;20.30;60.30
39519;DHT22;25200;53.394;10.414;2022-08-03T03:24:46;20.30;60.00
39519;DHT22;25200;53.394;10.414;2022-08-03T03:27:16;20.30;60.10
39519;DHT22;25200;53.394;10.414;2022-08-03T03:29:42;20.30;60.20
39519;DHT22;25200;53.394;10.414;2022-08-03T03:32:08;20.20;60.20
39519;DHT22;25200;53.394;10.414;2022-08-03T03:34:35;20.20;60.40
39519;DHT22;25200;53.394;10.414;2022-08-03T03:37:02;20.20;60.30
39519;DHT22;25200;53.394;10.414;2022-08-03T03:39:27;20.20;60.10
39519;DHT22;25200;53.394;10.414;2022-08-03T03:41:53;20.10;60.10
39519;DHT22;25200;53.394;10.414;2022-08-03T03:44:19;20.10;60.30
39519;DHT22;25200;53.394;10.414;2022-08-03T03:46:45;20.10;60.40
39519;DHT22;25200;53.394;10.414;2022-08-03T03:49:11;20.10;60.50
39519;DHT22;25200;53.394;10.414;2022-08-03T03:51:37;20.10;60.50
39519;DHT22;25200;53.394;10.414;2022-08-03T03:54:03;20.10;60.40
39519;DHT22;25200;53.394;10.414;2022-08-03T03:56:32;20.10;60.50
39519;DHT22;25200;53.394;10.414;2022-08-03T03:58:58;20.10;60.60
39519;DHT22;25200;53.394;10.414;2022-08-03T04:01:24;20.00;60.60
39519;DHT22;25200;53.394;10.414;2022-08-03T04:03:50;20.10;60.60
39519;DHT22;25200;53.394;10.414;2022-08-03T04:06:15;20.00;61.10
39519;DHT22;25200;53.394;10.414;2022-08-03T04:09:01;20.00;60.70
39519;DHT22;25200;53.394;10.414;2022-08-03T04:11:51;20.00;60.50
39519;DHT22;25200;53.394;10.414;2022-08-03T04:14:32;20.00;60.70
39519;DHT22;25200;53.394;10.414;2022-08-03T04:17:04;20.00;60.50
39519;DHT22;25200;53.394;10.414;2022-08-03T04:19:35;20.00;60.70
39519;DHT22;25200;53.394;10.414;2022-08-03T04:22:11;20.00;60.60
39519;DHT22;25200;53.394;10.414;2022-08-03T04:24:48;20.00;60.70
39519;DHT22;25200;53.394;10.414;2022-08-03T04:27:19;20.10;60.50
39519;DHT22;25200;53.394;10.414;2022-08-03T04:29:46;20.10;60.60
39519;DHT22;25200;53.394;10.414;2022-08-03T04:32:14;20.10;60.70
39519;DHT22;25200;53.394;10.414;2022-08-03T04:34:40;20.20;60.70
39519;DHT22;25200;53.394;10.414;2022-08-03T04:37:11;20.30;60.40
39519;DHT22;25200;53.394;10.414;2022-08-03T04:39:41;20.30;60.40
39519;DHT22;25200;53.394;10.414;2022-08-03T04:42:08;20.30;60.20
39519;DHT22;25200;53.394;10.414;2022-08-03T04:44:37;20.30;60.10
39519;DHT22;25200;53.394;10.414;2022-08-03T04:47:05;20.40;60.20
39519;DHT22;25200;53.394;10.414;2022-08-03T04:49:31;20.40;60.00
39519;DHT22;25200;53.394;10.414;2022-08-03T04:51:57;20.40;60.00
39519;DHT22;25200;53.394;10.414;2022-08-03T04:54:23;20.50;59.90
39519;DHT22;25200;53.394;10.414;2022-08-03T04:56:49;20.50;59.90
39519;DHT22;25200;53.394;10.414;2022-08-03T04:59:14;20.50;59.90
39519;DHT22;25200;53.394;10.414;2022-08-03T05:01:42;20.50;59.90
39519;DHT22;25200;53.394;10.414;2022-08-03T05:04:08;20.50;59.90
39519;DHT22;25200;53.394;10.414;2022-08-03T05:06:34;20.50;60.20
39519;DHT22;25200;53.394;10.414;2022-08-03T05:09:00;20.50;60.10
39519;DHT22;25200;53.394;10.414;2022-08-03T05:11:26;20.50;60.00
39519;DHT22;25200;53.394;10.414;2022-08-03T05:13:51;20.50;60.80
39519;DHT22;25200;53.394;10.414;2022-08-03T05:16:17;20.50;60.30
39519;DHT22;25200;53.394;10.414;2022-08-03T05:18:43;20.40;60.20
39519;DHT22;25200;53.394;10.414;2022-08-03T05:21:10;20.40;60.20
39519;DHT22;25200;53.394;10.414;2022-08-03T05:23:38;20.40;60.20
39519;DHT22;25200;53.394;10.414;2022-08-03T05:26:04;20.50;60.20
39519;DHT22;25200;53.394;10.414;2022-08-03T05:28:30;20.40;60.10
39519;DHT22;25200;53.394;10.414;2022-08-03T05:30:56;20.50;60.10
39519;DHT22;25200;53.394;10.414;2022-08-03T05:33:22;20.50;60.10
39519;DHT22;25200;53.394;10.414;2022-08-03T05:35:47;20.50;60.00
39519;DHT22;25200;53.394;10.414;2022-08-03T05:38:13;20.50;60.30
39519;DHT22;25200;53.394;10.414;2022-08-03T05:40:39;20.50;60.10
39519;DHT22;25200;53.394;10.414;2022-08-03T05:43:05;20.60;60.10
39519;DHT22;25200;53.394;10.414;2022-08-03T05:45:30;20.60;60.10
39519;DHT22;25200;53.394;10.414;2022-08-03T05:47:56;20.60;60.20
39519;DHT22;25200;53.394;10.414;2022-08-03T05:50:22;20.60;60.00
39519;DHT22;25200;53.394;10.414;2022-08-03T05:52:48;20.60;59.90
39519;DHT22;25200;53.394;10.414;2022-08-03T05:55:15;20.60;59.90
39519;DHT22;25200;53.394;10.414;2022-08-03T05:57:41;20.60;59.80
39519;DHT22;25200;53.394;10.414;2022-08-03T06:00:09;20.70;59.90
39519;DHT22;25200;53.394;10.414;2022-08-03T06:02:36;20.70;60.00
39519;DHT22;25200;53.394;10.414;2022-08-03T06:05:02;20.80;60.50
39519;DHT22;25200;53.394;10.414;2022-08-03T06:07:28;20.70;60.00
39519;DHT22;25200;53.394;10.414;2022-08-03T06:09:54;20.80;60.00
39519;DHT22;25200;53.394;10.414;2022-08-03T06:12:20;20.80;59.90
39519;DHT22;25200;53.394;10.414;2022-08-03T06:14:46;20.80;59.90
39519;DHT22;25200;53.394;10.414;2022-08-03T06:17:11;20.80;60.20
39519;DHT22;25200;53.394;10.414;2022-08-03T06:19:37;20.90;60.30
39519;DHT22;25200;53.394;10.414;2022-08-03T06:22:03;20.90;60.10
39519;DHT22;25200;53.394;10.414;2022-08-03T06:24:29;20.90;61.20
39519;DHT22;25200;53.394;10.414;2022-08-03T06:26:55;21.00;60.40
39519;DHT22;25200;53.394;10.414;2022-08-03T06:29:21;21.00;61.10
39519;DHT22;25200;53.394;10.414;2022-08-03T06:31:46;21.10;60.60
39519;DHT22;25200;53.394;10.414;2022-08-03T06:34:12;21.10;60.80
39519;DHT22;25200;53.394;10.414;2022-08-03T06:36:38;21.20;60.90
39519;DHT22;25200;53.394;10.414;2022-08-03T06:39:04;21.20;61.60
39519;DHT22;25200;53.394;10.414;2022-08-03T06:41:30;21.30;61.30
39519;DHT22;25200;53.394;10.414;2022-08-03T06:43:56;21.30;60.90
39519;DHT22;25200;53.394;10.414;2022-08-03T06:46:21;21.40;61.30
39519;DHT22;25200;53.394;10.414;2022-08-03T06:48:47;21.40;61.10
39519;DHT22;25200;53.394;10.414;2022-08-03T06:51:13;21.40;61.90
39519;DHT22;25200;53.394;10.414;2022-08-03T06:53:39;21.50;61.50
39519;DHT22;25200;53.394;10.414;2022-08-03T06:56:06;21.60;62.50
39519;DHT22;25200;53.394;10.414;2022-08-03T06:58:32;21.70;63.10
39519;DHT22;25200;53.394;10.414;2022-08-03T07:00:57;21.70;61.70
39519;DHT22;25200;53.394;10.414;2022-08-03T07:03:23;21.80;62.50
39519;DHT22;25200;53.394;10.414;2022-08-03T07:05:49;21.90;62.00
39519;DHT22;25200;53.394;10.414;2022-08-03T07:08:16;22.00;62.00
39519;DHT22;25200;53.394;10.414;2022-08-03T07:10:42;22.00;62.70
39519;DHT22;25200;53.394;10.414;2022-08-03T07:13:08;22.10;62.30
39519;DHT22;25200;53.394;10.414;2022-08-03T07:15:34;22.20;62.30
39519;DHT22;25200;53.394;10.414;2022-08-03T07:18:00;22.30;62.40
39519;DHT22;25200;53.394;10.414;2022-08-03T07:20:25;22.40;61.80
39519;DHT22;25200;53.394;10.414;2022-08-03T07:22:51;22.40;61.60
39519;DHT22;25200;53.394;10.414;2022-08-03T07:25:17;22.50;62.30
39519;DHT22;25200;53.394;10.414;2022-08-03T07:27:47;22.60;62.20
39519;DHT22;25200;53.394;10.414;2022-08-03T07:30:14;22.70;62.00
39519;DHT22;25200;53.394;10.414;2022-08-03T07:32:40;22.80;61.50
39519;DHT22;25200;53.394;10.414;2022-08-03T07:35:07;22.90;62.00
39519;DHT22;25200;53.394;10.414;2022-08-03T07:37:33;22.90;61.70
39519;DHT22;25200;53.394;10.414;2022-08-03T07:39:59;23.00;61.60
39519;DHT22;25200;53.394;10.414;2022-08-03T07:42:26;23.10;61.40
39519;DHT22;25200;53.394;10.414;2022-08-03T07:44:52;23.20;61.30
39519;DHT22;25200;53.394;10.414;2022-08-03T07:47:23;23.30;61.10
39519;DHT22;25200;53.394;10.414;2022-08-03T07:49:49;23.40;61.40
39519;DHT22;25200;53.394;10.414;2022-08-03T07:52:15;23.50;60.70
39519;DHT22;25200;53.394;10.414;2022-08-03T07:54:59;23.60;60.70
39519;DHT22;25200;53.394;10.414;2022-08-03T07:57:25;23.70;60.80
39519;DHT22;25200;53.394;10.414;2022-08-03T07:59:51;23.70;60.90
39519;DHT22;25200;53.394;10.414;2022-08-03T08:02:16;23.90;61.30
39519;DHT22;25200;53.394;10.414;2022-08-03T08:04:42;24.00;60.70
39519;DHT22;25200;53.394;10.414;2022-08-03T08:07:08;24.10;60.80
39519;DHT22;25200;53.394;10.414;2022-08-03T08:09:34;24.20;60.60
39519;DHT22;25200;53.394;10.414;2022-08-03T08:11:59;24.30;60.40
39519;DHT22;25200;53.394;10.414;2022-08-03T08:14:25;24.30;59.80
39519;DHT22;25200;53.394;10.414;2022-08-03T08:16:51;24.40;59.70
39519;DHT22;25200;53.394;10.414;2022-08-03T08:19:17;24.50;59.70
39519;DHT22;25200;53.394;10.414;2022-08-03T08:21:43;24.60;59.60
39519;DHT22;25200;53.394;10.414;2022-08-03T08:24:09;24.70;59.70
39519;DHT22;25200;53.394;10.414;2022-08-03T08:26:35;24.80;59.30
39519;DHT22;25200;53.394;10.414;2022-08-03T08:29:01;24.90;59.30
39519;DHT22;25200;53.394;10.414;2022-08-03T08:31:27;25.00;59.00
39519;DHT22;25200;53.394;10.414;2022-08-03T08:33:52;25.10;59.00
39519;DHT22;25200;53.394;10.414;2022-08-03T08:36:18;25.20;59.00
39519;DHT22;25200;53.394;10.414;2022-08-03T08:38:44;25.30;58.60
39519;DHT22;25200;53.394;10.414;2022-08-03T08:41:10;25.40;58.70
39519;DHT22;25200;53.394;10.414;2022-08-03T08:43:36;25.50;58.80
39519;DHT22;25200;53.394;10.414;2022-08-03T08:46:02;25.60;58.60
39519;DHT22;25200;53.394;10.414;2022-08-03T08:48:29;25.70;58.70
39519;DHT22;25200;53.394;10.414;2022-08-03T08:50:56;25.90;58.60
39519;DHT22;25200;53.394;10.414;2022-08-03T08:53:25;26.00;58.70
39519;DHT22;25200;53.394;10.414;2022-08-03T08:55:51;26.20;58.50
39519;DHT22;25200;53.394;10.414;2022-08-03T08:58:20;26.30;58.50
39519;DHT22;25200;53.394;10.414;2022-08-03T09:00:48;26.50;58.30
39519;DHT22;25200;53.394;10.414;2022-08-03T09:03:14;26.70;58.50
39519;DHT22;25200;53.394;10.414;2022-08-03T09:05:42;26.90;58.20
39519;DHT22;25200;53.394;10.414;2022-08-03T09:08:08;27.10;57.90
39519;DHT22;25200;53.394;10.414;2022-08-03T09:10:34;27.30;57.80
39519;DHT22;25200;53.394;10.414;2022-08-03T09:13:00;27.50;57.50
39519;DHT22;25200;53.394;10.414;2022-08-03T09:15:30;27.70;57.40
39519;DHT22;25200;53.394;10.414;2022-08-03T09:17:58;27.90;57.60
39519;DHT22;25200;53.394;10.414;2022-08-03T09:20:27;28.10;57.20
39519;DHT22;25200;53.394;10.414;2022-08-03T09:23:00;28.30;57.20
39519;DHT22;25200;53.394;10.414;2022-08-03T09:25:37;28.50;56.90
39519;DHT22;25200;53.394;10.414;2022-08-03T09:30:31;28.90;56.70
39519;DHT22;25200;53.394;10.414;2022-08-03T09:33:01;29.00;56.30
39519;DHT22;25200;53.394;10.414;2022-08-03T09:35:27;29.10;56.40
39519;DHT22;25200;53.394;10.414;2022-08-03T09:38:18;29.10;55.90
39519;DHT22;25200;53.394;10.414;2022-08-03T09:40:48;29.20;56.00
39519;DHT22;25200;53.394;10.414;2022-08-03T09:43:15;29.30;56.10
39519;DHT22;25200;53.394;10.414;2022-08-03T09:45:41;29.50;56.20
39519;DHT22;25200;53.394;10.414;2022-08-03T09:48:28;29.60;56.10
39519;DHT22;25200;53.394;10.414;2022-08-03T09:50:59;29.80;55.80
39519;DHT22;25200;53.394;10.414;2022-08-03T09:53:25;30.00;55.50
39519;DHT22;25200;53.394;10.414;2022-08-03T09:58:16;30.20;55.60
39519;DHT22;25200;53.394;10.414;2022-08-03T10:01:03;30.30;55.50
39519;DHT22;25200;53.394;10.414;2022-08-03T10:03:31;30.50;55.60
39519;DHT22;25200;53.394;10.414;2022-08-03T10:05:57;30.70;55.70
39519;DHT22;25200;53.394;10.414;2022-08-03T10:08:24;30.80;55.20
39519;DHT22;25200;53.394;10.414;2022-08-03T10:10:51;31.00;55.20
39519;DHT22;25200;53.394;10.414;2022-08-03T10:13:22;31.10;55.10
39519;DHT22;25200;53.394;10.414;2022-08-03T10:15:47;31.30;54.50
39519;DHT22;25200;53.394;10.414;2022-08-03T10:18:13;31.50;55.00
39519;DHT22;25200;53.394;10.414;2022-08-03T10:20:45;31.70;54.60
39519;DHT22;25200;53.394;10.414;2022-08-03T10:23:16;31.80;54.70
39519;DHT22;25200;53.394;10.414;2022-08-03T10:25:44;32.00;55.10
39519;DHT22;25200;53.394;10.414;2022-08-03T10:28:14;32.20;54.70
39519;DHT22;25200;53.394;10.414;2022-08-03T10:30:40;32.30;54.10
39519;DHT22;25200;53.394;10.414;2022-08-03T10:33:21;32.50;54.00
39519;DHT22;25200;53.394;10.414;2022-08-03T10:35:52;32.60;54.30
39519;DHT22;25200;53.394;10.414;2022-08-03T10:38:32;32.60;54.10
39519;DHT22;25200;53.394;10.414;2022-08-03T10:41:00;32.70;53.80
39519;DHT22;25200;53.394;10.414;2022-08-03T10:43:45;32.90;53.70
39519;DHT22;25200;53.394;10.414;2022-08-03T10:46:14;33.10;53.80
39519;DHT22;25200;53.394;10.414;2022-08-03T10:48:42;33.40;53.40
39519;DHT22;25200;53.394;10.414;2022-08-03T10:51:08;33.50;53.60
39519;DHT22;25200;53.394;10.414;2022-08-03T10:53:39;33.80;53.50
39519;DHT22;25200;53.394;10.414;2022-08-03T11:02:12;34.40;52.60
39519;DHT22;25200;53.394;10.414;2022-08-03T11:04:39;34.60;53.20
39519;DHT22;25200;53.394;10.414;2022-08-03T11:07:18;34.80;53.20
39519;DHT22;25200;53.394;10.414;2022-08-03T11:09:49;35.00;53.20
39519;DHT22;25200;53.394;10.414;2022-08-03T11:12:25;35.10;53.00
39519;DHT22;25200;53.394;10.414;2022-08-03T11:14:52;35.30;52.20
39519;DHT22;25200;53.394;10.414;2022-08-03T11:17:19;35.30;53.00
39519;DHT22;25200;53.394;10.414;2022-08-03T11:19:47;35.40;52.90
39519;DHT22;25200;53.394;10.414;2022-08-03T11:22:14;35.60;52.60
39519;DHT22;25200;53.394;10.414;2022-08-03T11:27:15;35.90;52.70
39519;DHT22;25200;53.394;10.414;2022-08-03T11:35:21;36.50;52.00
39519;DHT22;25200;53.394;10.414;2022-08-03T11:43:00;36.70;52.30
39519;DHT22;25200;53.394;10.414;2022-08-03T11:45:26;36.90;51.00
39519;DHT22;25200;53.394;10.414;2022-08-03T11:47:53;36.80;51.40
39519;DHT22;25200;53.394;10.414;2022-08-03T11:50:21;36.90;50.90
39519;DHT22;25200;53.394;10.414;2022-08-03T11:52:49;37.00;51.40
39519;DHT22;25200;53.394;10.414;2022-08-03T11:55:18;37.20;50.70
39519;DHT22;25200;53.394;10.414;2022-08-03T11:57:46;37.30;51.00
39519;DHT22;25200;53.394;10.414;2022-08-03T12:00:23;37.40;51.30
39519;DHT22;25200;53.394;10.414;2022-08-03T12:02:56;37.60;51.20
39519;DHT22;25200;53.394;10.414;2022-08-03T12:05:33;37.70;51.00
39519;DHT22;25200;53.394;10.414;2022-08-03T12:07:58;37.70;51.30
39519;DHT22;25200;53.394;10.414;2022-08-03T12:10:24;37.80;51.90
39519;DHT22;25200;53.394;10.414;2022-08-03T12:12:55;38.00;51.60
39519;DHT22;25200;53.394;10.414;2022-08-03T12:15:26;38.20;51.10
39519;DHT22;25200;53.394;10.414;2022-08-03T12:17:52;38.30;51.10
39519;DHT22;25200;53.394;10.414;2022-08-03T12:20:25;38.30;51.00
39519;DHT22;25200;53.394;10.414;2022-08-03T12:22:52;38.50;51.20
39519;DHT22;25200;53.394;10.414;2022-08-03T12:25:25;38.60;51.50
39519;DHT22;25200;53.394;10.414;2022-08-03T12:27:52;38.90;51.20
39519;DHT22;25200;53.394;10.414;2022-08-03T12:30:19;39.10;51.00
39519;DHT22;25200;53.394;10.414;2022-08-03T12:32:45;39.20;51.10
39519;DHT22;25200;53.394;10.414;2022-08-03T12:35:21;39.20;50.50
39519;DHT22;25200;53.394;10.414;2022-08-03T12:37:49;39.30;51.10
39519;DHT22;25200;53.394;10.414;2022-08-03T12:40:24;39.40;51.10
39519;DHT22;25200;53.394;10.414;2022-08-03T12:42:51;39.50;51.00
39519;DHT22;25200;53.394;10.414;2022-08-03T12:47:58;39.80;50.90
39519;DHT22;25200;53.394;10.414;2022-08-03T12:52:51;39.80;49.70
39519;DHT22;25200;53.394;10.414;2022-08-03T12:55:20;39.80;50.20
39519;DHT22;25200;53.394;10.414;2022-08-03T12:57:47;39.80;49.90
39519;DHT22;25200;53.394;10.414;2022-08-03T13:00:15;39.80;50.30
39519;DHT22;25200;53.394;10.414;2022-08-03T13:02:41;40.00;49.90
39519;DHT22;25200;53.394;10.414;2022-08-03T13:05:13;40.00;49.20
39519;DHT22;25200;53.394;10.414;2022-08-03T13:07:43;39.90;49.80
39519;DHT22;25200;53.394;10.414;2022-08-03T13:10:10;39.90;49.40
39519;DHT22;25200;53.394;10.414;2022-08-03T13:12:48;39.90;49.20
39519;DHT22;25200;53.394;10.414;2022-08-03T13:15:14;39.90;49.00
39519;DHT22;25200;53.394;10.414;2022-08-03T13:17:41;40.10;49.40
39519;DHT22;25200;53.394;10.414;2022-08-03T13:20:07;40.10;49.40
39519;DHT22;25200;53.394;10.414;2022-08-03T13:22:33;40.20;49.60
39519;DHT22;25200;53.394;10.414;2022-08-03T13:24:59;40.30;50.00
39519;DHT22;25200;53.394;10.414;2022-08-03T13:27:26;40.40;49.40
39519;DHT22;25200;53.394;10.414;2022-08-03T13:29:53;40.60;49.50
39519;DHT22;25200;53.394;10.414;2022-08-03T13:32:19;40.70;48.70
39519;DHT22;25200;53.394;10.414;2022-08-03T13:34:45;40.80;49.10
39519;DHT22;25200;53.394;10.414;2022-08-03T13:37:11;40.90;49.50
39519;DHT22;25200;53.394;10.414;2022-08-03T13:39:38;40.90;49.50
39519;DHT22;25200;53.394;10.414;2022-08-03T13:42:04;41.10;48.70
39519;DHT22;25200;53.394;10.414;2022-08-03T13:44:31;41.10;49.40
39519;DHT22;25200;53.394;10.414;2022-08-03T13:46:56;41.20;49.10
39519;DHT22;25200;53.394;10.414;2022-08-03T13:49:23;41.20;48.70
39519;DHT22;25200;53.394;10.414;2022-08-03T13:51:49;41.30;49.70
39519;DHT22;25200;53.394;10.414;2022-08-03T13:54:15;41.50;49.00
39519;DHT22;25200;53.394;10.414;2022-08-03T13:56:40;41.60;48.90
39519;DHT22;25200;53.394;10.414;2022-08-03T13:59:06;41.60;49.10
39519;DHT22;25200;53.394;10.414;2022-08-03T14:01:32;41.80;49.00
39519;DHT22;25200;53.394;10.414;2022-08-03T14:03:57;41.80;48.90
39519;DHT22;25200;53.394;10.414;2022-08-03T14:06:23;41.90;49.20
39519;DHT22;25200;53.394;10.414;2022-08-03T14:08:49;41.80;49.00
39519;DHT22;25200;53.394;10.414;2022-08-03T14:11:16;41.80;48.70
39519;DHT22;25200;53.394;10.414;2022-08-03T14:13:42;41.70;47.90
39519;DHT22;25200;53.394;10.414;2022-08-03T14:16:08;41.60;48.20
39519;DHT22;25200;53.394;10.414;2022-08-03T14:18:34;41.60;47.20
39519;DHT22;25200;53.394;10.414;2022-08-03T14:21:04;41.60;47.80
39519;DHT22;25200;53.394;10.414;2022-08-03T14:23:30;41.60;48.20
39519;DHT22;25200;53.394;10.414;2022-08-03T14:25:55;41.50;48.50
39519;DHT22;25200;53.394;10.414;2022-08-03T14:28:22;41.50;47.80
39519;DHT22;25200;53.394;10.414;2022-08-03T14:30:49;41.40;48.50
39519;DHT22;25200;53.394;10.414;2022-08-03T14:33:15;41.40;49.00
39519;DHT22;25200;53.394;10.414;2022-08-03T14:35:41;41.50;48.40
39519;DHT22;25200;53.394;10.414;2022-08-03T14:38:06;41.40;48.00
39519;DHT22;25200;53.394;10.414;2022-08-03T14:40:32;41.40;48.90
39519;DHT22;25200;53.394;10.414;2022-08-03T14:42:58;41.40;48.40
39519;DHT22;25200;53.394;10.414;2022-08-03T14:45:23;41.40;47.60
39519;DHT22;25200;53.394;10.414;2022-08-03T14:47:49;41.50;48.10
39519;DHT22;25200;53.394;10.414;2022-08-03T14:50:16;41.50;48.10
39519;DHT22;25200;53.394;10.414;2022-08-03T14:52:41;41.50;47.30
39519;DHT22;25200;53.394;10.414;2022-08-03T14:55:07;41.40;47.40
39519;DHT22;25200;53.394;10.414;2022-08-03T14:57:33;41.20;46.30
39519;DHT22;25200;53.394;10.414;2022-08-03T14:59:59;40.90;46.20
39519;DHT22;25200;53.394;10.414;2022-08-03T15:02:24;40.60;46.60
39519;DHT22;25200;53.394;10.414;2022-08-03T15:04:50;40.30;46.40
39519;DHT22;25200;53.394;10.414;2022-08-03T15:07:16;40.20;46.70
39519;DHT22;25200;53.394;10.414;2022-08-03T15:09:42;40.00;46.90
39519;DHT22;25200;53.394;10.414;2022-08-03T15:12:07;39.90;46.50
39519;DHT22;25200;53.394;10.414;2022-08-03T15:14:33;39.70;45.60
39519;DHT22;25200;53.394;10.414;2022-08-03T15:16:59;39.50;46.50
39519;DHT22;25200;53.394;10.414;2022-08-03T15:19:25;39.30;47.10
39519;DHT22;25200;53.394;10.414;2022-08-03T15:21:51;39.10;46.40
39519;DHT22;25200;53.394;10.414;2022-08-03T15:24:16;38.90;46.20
39519;DHT22;25200;53.394;10.414;2022-08-03T15:26:42;38.80;46.50
39519;DHT22;25200;53.394;10.414;2022-08-03T15:29:08;38.60;46.40
39519;DHT22;25200;53.394;10.414;2022-08-03T15:31:33;38.40;46.60
39519;DHT22;25200;53.394;10.414;2022-08-03T15:33:59;38.20;46.50
39519;DHT22;25200;53.394;10.414;2022-08-03T15:36:25;38.00;45.80
39519;DHT22;25200;53.394;10.414;2022-08-03T15:38:51;37.80;46.20
39519;DHT22;25200;53.394;10.414;2022-08-03T15:41:16;37.60;46.30
39519;DHT22;25200;53.394;10.414;2022-08-03T15:43:42;37.50;46.10
39519;DHT22;25200;53.394;10.414;2022-08-03T15:46:11;37.30;46.60
39519;DHT22;25200;53.394;10.414;2022-08-03T15:48:37;37.10;46.50
39519;DHT22;25200;53.394;10.414;2022-08-03T15:51:03;37.00;46.50
39519;DHT22;25200;53.394;10.414;2022-08-03T15:53:29;36.80;47.00
39519;DHT22;25200;53.394;10.414;2022-08-03T15:55:54;36.70;46.70
39519;DHT22;25200;53.394;10.414;2022-08-03T15:58:20;36.50;46.70
39519;DHT22;25200;53.394;10.414;2022-08-03T16:00:46;36.40;47.30